Time;durP1;ratioP1;P1;durP2;ratioP2;P2;SDS_P1;SDS_P2;PMS_P1;PMS_P2;Temp;Humidity;BMP_temperature;BMP_pressure;BME280_temperature;BME280_humidity;BME280_pressure;Samples;Min_cycle;Max_cycle;Signal;HPM_P1;HPM_P2
2022/04/16 00:00:27;;;;;;;0.70;0.70;;;19.90;60.00;;;;;;4975627;28;20050;-15
2022/04/16 00:02:54;;;;;;;0.50;0.50;;;19.80;60.00;;;;;;4956802;28;20054;-15
2022/04/16 00:05:20;;;;;;;0.52;0.52;;;19.80;60.80;;;;;;4957521;28;20062;-15
2022/04/16 00:08:06;;;;;;;0.50;0.50;;;19.90;60.00;;;;;;4956550;28;20114;-15
2022/04/16 00:10:32;;;;;;;0.40;0.40;;;19.80;59.90;;;;;;4957354;28;20524;-14
2022/04/16 00:12:57;;;;;;;0.60;0.60;;;19.90;60.00;;;;;;4956928;28;20107;-15
2022/04/16 00:15:23;;;;;;;0.75;0.75;;;19.80;60.00;;;;;;4966646;28;20125;-15
2022/04/16 00:17:48;;;;;;;1.13;0.50;;;19.80;60.00;;;;;;4974308;28;20134;-15
2022/04/16 00:20:14;;;;;;;0.43;0.43;;;19.90;60.00;;;;;;4976022;28;20051;-15
2022/04/16 00:22:40;;;;;;;0.43;0.43;;;19.80;60.10;;;;;;4975127;28;20047;-15
2022/04/16 00:25:06;;;;;;;0.50;0.50;;;19.80;60.10;;;;;;4957272;28;20496;-14
2022/04/16 00:27:31;;;;;;;0.57;0.57;;;19.80;60.10;;;;;;4959124;28;20058;-14
2022/04/16 00:29:57;;;;;;;0.50;0.50;;;19.80;60.20;;;;;;4956651;28;20051;-14
2022/04/16 00:32:22;;;;;;;0.50;0.50;;;19.80;60.00;;;;;;4957366;28;20070;-15
2022/04/16 00:34:48;;;;;;;0.60;0.60;;;19.80;60.30;;;;;;4956606;28;20048;-15
2022/04/16 00:37:14;;;;;;;0.50;0.50;;;19.80;60.40;;;;;;4957136;28;20086;-15
2022/04/16 00:39:39;;;;;;;0.63;0.63;;;19.80;60.30;;;;;;4956572;28;20041;-16
2022/04/16 00:42:05;;;;;;;0.43;0.43;;;19.80;60.30;;;;;;4957051;28;20041;-14
2022/04/16 00:44:30;;;;;;;0.60;0.60;;;19.80;60.20;;;;;;4957501;28;20076;-15
2022/04/16 00:46:56;;;;;;;0.52;0.52;;;19.80;60.10;;;;;;4956425;28;20485;-15
2022/04/16 00:49:22;;;;;;;0.52;0.52;;;19.80;60.30;;;;;;4957567;28;20067;-15
2022/04/16 00:51:48;;;;;;;0.40;0.40;;;19.80;60.20;;;;;;4956359;28;20051;-14
2022/04/16 00:54:13;;;;;;;0.60;0.60;;;19.80;60.30;;;;;;4988723;28;20039;-15
2022/04/16 00:56:39;;;;;;;0.40;0.40;;;19.80;60.30;;;;;;4975732;28;20050;-16
2022/04/16 00:59:05;;;;;;;0.52;0.52;;;19.80;60.40;;;;;;4963479;28;20047;-15
2022/04/16 01:01:33;;;;;;;0.50;0.50;;;19.80;60.30;;;;;;4960685;28;20105;-14
2022/04/16 01:03:59;;;;;;;0.50;0.50;;;19.80;60.40;;;;;;4960251;28;20069;-14
2022/04/16 01:06:36;;;;;;;0.38;0.38;;;19.80;60.40;;;;;;4960618;28;20055;-14
2022/04/16 01:09:02;;;;;;;0.60;0.60;;;19.80;60.40;;;;;;4960212;28;20090;-15
2022/04/16 01:11:28;;;;;;;0.40;0.40;;;19.70;60.30;;;;;;4960629;28;20070;-15
2022/04/16 01:13:53;;;;;;;0.50;0.50;;;19.80;60.40;;;;;;4959781;28;20043;-14
2022/04/16 01:16:19;;;;;;;0.50;0.50;;;19.70;60.40;;;;;;4963538;28;20053;-15
2022/04/16 01:18:46;;;;;;;0.50;0.50;;;19.80;60.50;;;;;;4978285;28;20047;-15
2022/04/16 01:21:12;;;;;;;0.40;0.40;;;19.70;60.60;;;;;;4966801;28;20098;-14
2022/04/16 01:23:38;;;;;;;0.57;0.57;;;19.70;60.40;;;;;;4960168;28;20094;-15
2022/04/16 01:26:03;;;;;;;0.63;0.63;;;19.80;60.30;;;;;;4959399;28;20134;-15
2022/04/16 01:28:30;;;;;;;0.50;0.50;;;19.80;60.40;;;;;;4960001;28;20054;-15
2022/04/16 01:30:55;;;;;;;0.50;0.50;;;19.80;60.40;;;;;;4959495;28;20050;-15
2022/04/16 01:33:22;;;;;;;0.38;0.38;;;19.70;60.40;;;;;;4959950;28;20501;-14
2022/04/16 01:35:53;;;;;;;0.50;0.50;;;19.80;61.20;;;;;;4959714;28;20051;-14
2022/04/16 01:38:19;;;;;;;0.40;0.40;;;19.70;60.30;;;;;;4959815;28;20041;-15
2022/04/16 01:40:45;;;;;;;0.40;0.40;;;19.70;60.40;;;;;;4959296;28;20047;-14
2022/04/16 01:43:10;;;;;;;0.50;0.50;;;19.70;60.40;;;;;;4960388;28;20110;-15
2022/04/16 01:45:36;;;;;;;0.40;0.40;;;19.70;60.30;;;;;;4959824;28;20516;-15
2022/04/16 01:48:01;;;;;;;0.40;0.40;;;19.70;60.50;;;;;;4959043;28;20051;-14
2022/04/16 01:50:27;;;;;;;0.52;0.52;;;19.70;60.40;;;;;;4960089;28;20421;-15
2022/04/16 01:52:54;;;;;;;0.50;0.50;;;19.70;60.60;;;;;;4990369;28;20051;-14
2022/04/16 01:55:20;;;;;;;0.40;0.40;;;19.70;60.50;;;;;;4969228;28;20504;-15
2022/04/16 01:57:45;;;;;;;0.45;0.45;;;19.70;60.50;;;;;;4977191;28;20377;-15
2022/04/16 02:00:13;;;;;;;0.50;0.50;;;19.70;60.50;;;;;;4963057;28;20050;-14
2022/04/16 02:02:38;;;;;;;0.32;0.32;;;19.70;60.40;;;;;;4959470;28;20042;-15
2022/04/16 02:05:08;;;;;;;0.45;0.45;;;19.70;60.50;;;;;;4958902;28;20043;-15
2022/04/16 02:07:33;;;;;;;0.40;0.40;;;19.70;60.50;;;;;;4959130;28;20122;-15
2022/04/16 02:10:00;;;;;;;0.40;0.40;;;19.70;60.60;;;;;;4958797;28;20077;-14
2022/04/16 02:12:26;;;;;;;0.30;0.30;;;19.70;60.40;;;;;;4959602;28;20123;-15
2022/04/16 02:14:51;;;;;;;0.35;0.35;;;19.70;60.50;;;;;;4958670;28;20071;-15
2022/04/16 02:17:17;;;;;;;0.30;0.30;;;19.70;60.50;;;;;;4969707;28;20042;-15
2022/04/16 02:19:43;;;;;;;0.40;0.40;;;19.70;60.60;;;;;;4977700;28;20082;-15
2022/04/16 02:22:10;;;;;;;0.28;0.28;;;19.60;60.60;;;;;;4968140;28;20059;-15
2022/04/16 02:24:36;;;;;;;0.50;0.50;;;19.60;60.50;;;;;;4959159;28;20093;-15
2022/04/16 02:27:02;;;;;;;0.50;0.50;;;19.60;60.70;;;;;;4958491;28;20035;-15
2022/04/16 02:29:28;;;;;;;0.40;0.40;;;19.60;60.70;;;;;;4958912;28;20105;-15
2022/04/16 02:31:53;;;;;;;0.43;0.40;;;19.60;60.70;;;;;;4958230;28;20082;-15
2022/04/16 02:34:19;;;;;;;0.40;0.40;;;19.60;60.70;;;;;;4958866;28;20039;-15
2022/04/16 02:36:45;;;;;;;0.40;0.40;;;19.60;60.70;;;;;;4959001;28;20128;-15
2022/04/16 02:39:10;;;;;;;0.40;0.40;;;19.60;60.60;;;;;;4974056;28;20042;-15
2022/04/16 02:41:36;;;;;;;0.30;0.30;;;19.70;60.50;;;;;;4978172;28;20042;-14
2022/04/16 02:44:02;;;;;;;0.22;0.22;;;19.60;60.50;;;;;;4977564;28;20062;-15
2022/04/16 02:49:15;;;;;;;0.30;0.30;;;19.60;60.60;;;;;;4966952;28;20089;-15
2022/04/16 02:51:41;;;;;;;0.20;0.20;;;19.60;60.70;;;;;;4977810;28;20047;-14
2022/04/16 02:54:07;;;;;;;0.30;0.30;;;19.60;60.80;;;;;;4977323;28;20066;-14
2022/04/16 02:56:32;;;;;;;0.35;0.35;;;19.60;60.70;;;;;;4970204;28;20050;-14
2022/04/16 02:58:58;;;;;;;0.38;0.38;;;19.60;60.50;;;;;;4957967;28;20051;-15
2022/04/16 03:01:24;;;;;;;0.40;0.40;;;19.60;60.70;;;;;;4958447;28;20105;-15
2022/04/16 03:03:49;;;;;;;0.40;0.40;;;19.60;60.60;;;;;;4970457;28;20570;-15
2022/04/16 03:06:15;;;;;;;0.30;0.30;;;19.60;60.70;;;;;;4961492;28;20058;-15
2022/04/16 03:08:41;;;;;;;0.30;0.30;;;19.60;60.70;;;;;;4958102;28;20054;-15
2022/04/16 03:11:06;;;;;;;0.52;0.52;;;19.60;60.80;;;;;;4957662;28;20047;-15
2022/04/16 03:13:34;;;;;;;0.50;0.50;;;19.60;60.70;;;;;;4958305;28;20089;-15
2022/04/16 03:18:45;;;;;;;0.30;0.30;;;19.60;60.70;;;;;;4976667;28;20148;-15
2022/04/16 03:21:11;;;;;;;0.43;0.40;;;19.60;60.70;;;;;;4976114;28;20082;-15
2022/04/16 03:23:37;;;;;;;0.40;0.40;;;19.60;60.70;;;;;;4977314;28;20059;-15
2022/04/16 03:26:02;;;;;;;0.30;0.30;;;19.60;60.60;;;;;;4963712;28;20400;-15
2022/04/16 03:28:28;;;;;;;0.30;0.30;;;19.60;60.70;;;;;;4958035;28;20412;-14
2022/04/16 03:30:53;;;;;;;0.40;0.40;;;19.60;60.60;;;;;;4957424;28;20046;-15
2022/04/16 03:33:20;;;;;;;0.30;0.30;;;19.60;60.50;;;;;;4958076;28;20105;-14
2022/04/16 03:35:46;;;;;;;0.55;0.55;;;19.60;60.60;;;;;;4957876;28;20050;-15
2022/04/16 03:38:11;;;;;;;0.40;0.40;;;19.60;60.70;;;;;;4957192;28;20141;-14
2022/04/16 03:40:38;;;;;;;0.43;0.43;;;19.60;60.60;;;;;;4958150;28;20054;-14
2022/04/16 03:43:03;;;;;;;0.30;0.30;;;19.60;60.50;;;;;;4957482;28;20082;-14
2022/04/16 03:45:39;;;;;;;0.20;0.20;;;19.60;60.60;;;;;;4957597;28;20071;-15
2022/04/16 03:48:05;;;;;;;0.40;0.40;;;19.60;60.40;;;;;;4955731;28;20043;-14
2022/04/16 03:50:31;;;;;;;0.40;0.40;;;19.60;60.50;;;;;;4957650;28;20042;-15
2022/04/16 03:52:57;;;;;;;0.30;0.30;;;19.50;60.60;;;;;;4988100;28;20074;-14
2022/04/16 04:00:56;;;;;;;0.20;0.20;;;19.50;60.60;;;;;;4973394;28;20089;-15
2022/04/16 04:03:22;;;;;;;0.20;0.20;;;19.50;60.60;;;;;;4957643;28;20051;-14
2022/04/16 04:05:53;;;;;;;0.17;0.17;;;19.50;60.70;;;;;;4957462;28;20035;-15
2022/04/16 04:08:18;;;;;;;0.20;0.20;;;19.50;60.80;;;;;;4957267;28;20048;-15
2022/04/16 04:10:45;;;;;;;0.20;0.20;;;19.50;60.70;;;;;;4957567;28;20035;-15
2022/04/16 04:13:11;;;;;;;0.30;0.30;;;19.50;60.80;;;;;;4956868;28;20061;-14
2022/04/16 04:15:36;;;;;;;0.20;0.20;;;19.50;60.70;;;;;;4957475;28;20035;-15
2022/04/16 04:18:02;;;;;;;0.30;0.30;;;19.50;60.80;;;;;;4963446;28;20102;-15
2022/04/16 04:20:28;;;;;;;0.30;0.30;;;19.50;60.70;;;;;;4956224;28;20042;-15
2022/04/16 04:22:54;;;;;;;0.20;0.20;;;19.50;60.70;;;;;;4956808;28;20054;-15
2022/04/16 04:25:19;;;;;;;0.20;0.20;;;19.50;60.50;;;;;;4957250;28;20043;-15
2022/04/16 04:27:45;;;;;;;0.38;0.38;;;19.50;60.60;;;;;;4957259;28;20047;-15
2022/04/16 04:30:11;;;;;;;0.30;0.30;;;19.50;60.60;;;;;;4956927;28;20130;-15
2022/04/16 04:32:36;;;;;;;0.20;0.20;;;19.50;60.50;;;;;;4957390;28;20428;-14
2022/04/16 04:35:03;;;;;;;0.20;0.20;;;19.50;60.60;;;;;;4960304;28;20047;-15
2022/04/16 04:37:29;;;;;;;0.20;0.20;;;19.50;60.70;;;;;;4959717;28;20039;-14
2022/04/16 04:39:54;;;;;;;0.20;0.20;;;19.50;60.80;;;;;;4960266;28;20046;-15
2022/04/16 04:42:26;;;;;;;0.10;0.10;;;19.40;60.90;;;;;;4961093;28;20043;-15
2022/04/16 04:44:52;;;;;;;0.25;0.25;;;19.50;60.70;;;;;;4961038;28;20039;-14
2022/04/16 04:47:18;;;;;;;0.30;0.30;;;19.40;60.70;;;;;;4960308;28;20053;-15
2022/04/16 04:49:43;;;;;;;0.20;0.20;;;19.40;60.70;;;;;;4961006;28;20049;-14
2022/04/16 04:52:09;;;;;;;0.20;0.20;;;19.40;60.70;;;;;;4960117;28;20043;-14
2022/04/16 04:54:34;;;;;;;0.10;0.10;;;19.50;60.60;;;;;;4964481;28;20050;-15
2022/04/16 04:57:00;;;;;;;0.20;0.20;;;19.50;60.70;;;;;;4979484;28;20533;-14
2022/04/16 04:59:26;;;;;;;0.10;0.10;;;19.50;60.70;;;;;;4974866;28;20126;-15
2022/04/16 05:01:52;;;;;;;0.20;0.20;;;19.40;60.70;;;;;;4960742;28;20493;-15
2022/04/16 05:04:17;;;;;;;0.20;0.20;;;19.40;60.80;;;;;;4977355;28;20045;-14
2022/04/16 05:06:43;;;;;;;0.20;0.20;;;19.40;60.70;;;;;;4977267;28;20050;-14
2022/04/16 05:09:10;;;;;;;0.20;0.20;;;19.40;60.70;;;;;;4960029;28;20044;-15
2022/04/16 05:11:36;;;;;;;0.10;0.10;;;19.40;60.70;;;;;;4960865;28;20420;-15
2022/04/16 05:14:01;;;;;;;0.20;0.20;;;19.40;60.70;;;;;;4618561;28;10000568;-14
2022/04/16 05:16:27;;;;;;;0.20;0.20;;;19.40;60.60;;;;;;4975466;28;20042;-15
2022/04/16 05:18:52;;;;;;;0.20;0.20;;;19.40;60.80;;;;;;4975336;28;20062;-14
2022/04/16 05:21:18;;;;;;;0.20;0.20;;;19.40;60.70;;;;;;4975597;28;20085;-15
2022/04/16 05:23:44;;;;;;;0.20;0.20;;;19.40;60.70;;;;;;4968734;28;20052;-14
2022/04/16 05:26:09;;;;;;;0.20;0.20;;;19.40;60.70;;;;;;4986043;28;20105;-14
2022/04/16 05:28:36;;;;;;;1.23;0.10;;;19.40;60.80;;;;;;4975607;28;20043;-15
2022/04/16 05:31:02;;;;;;;0.25;0.20;;;19.40;60.90;;;;;;4972884;28;20047;-14
2022/04/16 05:36:12;;;;;;;0.20;0.20;;;19.40;60.90;;;;;;4971414;28;20075;-15
2022/04/16 05:38:38;;;;;;;0.20;0.20;;;19.40;60.90;;;;;;4955796;28;20047;-15
2022/04/16 05:41:04;;;;;;;0.55;0.17;;;19.40;60.90;;;;;;4969760;28;20039;-15
2022/04/16 05:43:29;;;;;;;0.17;0.17;;;19.40;60.70;;;;;;4973365;28;20047;-14
2022/04/16 05:45:55;;;;;;;0.10;0.10;;;19.40;60.70;;;;;;4971934;28;20046;-14
2022/04/16 05:48:20;;;;;;;0.15;0.15;;;19.50;60.80;;;;;;4972853;28;20093;-15
2022/04/16 05:50:46;;;;;;;1.35;0.20;;;19.40;60.70;;;;;;4974375;28;20047;-14
2022/04/16 05:53:13;;;;;;;0.10;0.10;;;19.40;60.70;;;;;;4968812;28;20035;-15
2022/04/16 05:55:39;;;;;;;0.20;0.10;;;19.40;60.80;;;;;;4973228;28;20589;-14
2022/04/16 05:58:05;;;;;;;0.20;0.20;;;19.40;60.70;;;;;;4962243;28;20427;-15
2022/04/16 06:00:31;;;;;;;0.20;0.20;;;19.40;60.80;;;;;;4962873;28;20047;-15
2022/04/16 06:02:56;;;;;;;0.10;0.10;;;19.40;60.70;;;;;;4981427;28;20524;-14
2022/04/16 06:05:22;;;;;;;0.10;0.10;;;19.40;61.50;;;;;;4962089;28;20051;-14
2022/04/16 06:07:48;;;;;;;0.20;0.20;;;19.50;60.80;;;;;;4974866;28;20054;-15
2022/04/16 06:10:13;;;;;;;0.70;0.20;;;19.40;60.60;;;;;;4973965;28;20042;-15
2022/04/16 06:12:41;;;;;;;0.40;0.10;;;19.40;60.60;;;;;;4972640;28;20518;-14
2022/04/16 06:15:07;;;;;;;0.20;0.10;;;19.40;60.70;;;;;;4972843;28;20051;-15
2022/04/16 06:17:33;;;;;;;0.10;0.10;;;19.40;60.70;;;;;;4969577;28;20801;-15
2022/04/16 06:19:58;;;;;;;0.20;0.20;;;19.40;60.70;;;;;;4972764;28;20413;-15
2022/04/16 06:22:24;;;;;;;0.20;0.20;;;19.40;60.70;;;;;;4968116;28;20054;-15
2022/04/16 06:24:50;;;;;;;0.13;0.13;;;19.40;60.70;;;;;;4976160;28;20034;-15
2022/04/16 06:27:15;;;;;;;0.10;0.10;;;19.40;60.60;;;;;;4975770;28;20519;-15
2022/04/16 06:29:41;;;;;;;0.20;0.20;;;19.40;60.50;;;;;;4976349;28;20042;-15
2022/04/16 06:32:07;;;;;;;0.10;0.10;;;19.40;60.60;;;;;;4970671;28;20145;-15
2022/04/16 06:34:33;;;;;;;0.40;0.10;;;19.40;60.60;;;;;;4976709;28;20602;-15
2022/04/16 06:36:59;;;;;;;0.20;0.20;;;19.40;60.50;;;;;;4976919;28;20067;-15
2022/04/16 06:39:24;;;;;;;0.73;0.17;;;19.40;60.40;;;;;;4970911;28;20138;-14
2022/04/16 06:41:50;;;;;;;0.20;0.20;;;19.50;60.50;;;;;;4977309;28;20535;-15
2022/04/16 06:44:16;;;;;;;0.10;0.10;;;19.40;60.40;;;;;;4975669;28;20078;-16
2022/04/16 06:46:41;;;;;;;0.85;0.30;;;19.50;60.50;;;;;;4966253;28;20039;-15
2022/04/16 06:49:07;;;;;;;0.20;0.20;;;19.50;60.40;;;;;;4966401;28;20100;-15
2022/04/16 06:51:32;;;;;;;0.17;0.17;;;19.50;60.50;;;;;;4973964;28;20050;-15
2022/04/16 06:53:58;;;;;;;0.10;0.10;;;19.50;60.40;;;;;;4968652;28;20518;-14
2022/04/16 06:56:24;;;;;;;0.17;0.17;;;19.50;61.10;;;;;;4967142;28;20071;-14
2022/04/16 06:58:50;;;;;;;0.20;0.20;;;19.40;60.30;;;;;;4977546;28;20126;-15
2022/04/16 07:01:15;;;;;;;1.20;0.20;;;19.40;60.60;;;;;;4976374;28;20042;-15
2022/04/16 07:03:41;;;;;;;1.27;0.13;;;19.40;60.40;;;;;;4966510;28;20514;-15
2022/04/16 07:06:07;;;;;;;0.17;0.17;;;19.40;60.50;;;;;;4957838;28;20099;-15
2022/04/16 07:08:32;;;;;;;0.20;0.20;;;19.40;60.40;;;;;;4969708;28;20496;-15
2022/04/16 07:10:58;;;;;;;0.10;0.10;;;19.50;60.40;;;;;;4977211;28;20106;-15
2022/04/16 07:13:24;;;;;;;0.10;0.10;;;19.40;60.30;;;;;;4977144;28;20043;-15
2022/04/16 07:15:49;;;;;;;0.10;0.10;;;19.50;60.40;;;;;;4971274;28;20118;-15
2022/04/16 07:18:15;;;;;;;0.10;0.10;;;19.40;60.30;;;;;;4975699;28;20174;-14
2022/04/16 07:20:42;;;;;;;0.10;0.10;;;19.50;60.30;;;;;;4976850;28;20057;-15
2022/04/16 07:23:08;;;;;;;0.10;0.10;;;19.50;60.10;;;;;;4975001;28;20069;-15
2022/04/16 07:25:34;;;;;;;0.10;0.10;;;19.60;59.90;;;;;;4975653;28;20050;-15
2022/04/16 07:27:59;;;;;;;0.10;0.10;;;19.70;59.70;;;;;;4970180;28;20397;-15
2022/04/16 07:30:27;;;;;;;0.10;0.10;;;20.00;59.10;;;;;;4973008;28;20046;-14
2022/04/16 07:32:53;;;;;;;0.10;0.10;;;20.30;58.10;;;;;;4964080;28;20077;-15
2022/04/16 07:35:18;;;;;;;0.57;0.40;;;20.60;57.50;;;;;;4964100;28;20524;-15
2022/04/16 07:37:44;;;;;;;0.47;0.10;;;20.80;56.80;;;;;;4963583;28;20496;-15
2022/04/16 07:40:10;;;;;;;0.10;0.10;;;20.90;56.50;;;;;;4976192;28;20058;-15
2022/04/16 07:42:35;;;;;;;0.10;0.10;;;21.00;56.30;;;;;;4977071;28;20034;-15
2022/04/16 07:45:01;;;;;;;0.20;0.13;;;21.10;56.20;;;;;;4971359;28;20038;-14
2022/04/16 07:47:27;;;;;;;0.65;0.52;;;20.90;56.50;;;;;;4957313;28;20130;-15
2022/04/16 07:49:52;;;;;;;0.00;0.00;;;20.60;57.20;;;;;;4968875;28;20039;-15
2022/04/16 07:52:18;;;;;;;0.10;0.10;;;20.20;57.90;;;;;;4971265;28;20096;-15
2022/04/16 07:54:43;;;;;;;0.10;0.10;;;20.00;58.50;;;;;;4965136;28;20079;-15
2022/04/16 07:57:10;;;;;;;0.10;0.10;;;19.90;58.90;;;;;;4975171;28;20050;-15
2022/04/16 07:59:35;;;;;;;0.10;0.10;;;19.80;59.10;;;;;;4976357;28;20051;-15
2022/04/16 08:02:01;;;;;;;0.10;0.10;;;19.80;59.10;;;;;;4976429;28;20936;-15
2022/04/16 08:04:26;;;;;;;0.10;0.10;;;19.80;59.20;;;;;;4959647;28;20075;-15
2022/04/16 08:06:52;;;;;;;0.20;0.20;;;19.80;59.30;;;;;;4968978;28;20049;-16
2022/04/16 08:09:18;;;;;;;0.10;0.10;;;19.80;59.40;;;;;;4971813;28;20045;-15
2022/04/16 08:11:46;;;;;;;0.13;0.13;;;19.80;59.40;;;;;;4970252;28;20043;-15
2022/04/16 08:14:12;;;;;;;0.10;0.10;;;19.80;59.50;;;;;;4975904;28;20043;-15
2022/04/16 08:16:38;;;;;;;0.10;0.10;;;19.70;59.70;;;;;;4974405;28;20409;-15
2022/04/16 08:19:03;;;;;;;0.20;0.20;;;19.70;59.80;;;;;;4968291;28;20042;-14
2022/04/16 08:21:30;;;;;;;0.20;0.20;;;19.60;59.90;;;;;;4975738;28;20488;-15
2022/04/16 08:24:04;;;;;;;0.10;0.10;;;19.60;59.90;;;;;;4974634;28;20054;-15
2022/04/16 08:26:30;;;;;;;0.40;0.10;;;19.60;59.90;;;;;;4973746;28;20137;-15
2022/04/16 08:28:56;;;;;;;0.00;0.00;;;19.60;60.00;;;;;;4974303;28;20294;-15
2022/04/16 08:31:21;;;;;;;0.00;0.00;;;19.60;59.90;;;;;;4963348;28;20518;-15
2022/04/16 08:33:47;;;;;;;0.10;0.10;;;19.60;60.00;;;;;;4968179;28;20054;-15
2022/04/16 08:36:12;;;;;;;0.10;0.10;;;19.60;60.10;;;;;;4967222;28;20054;-15
2022/04/16 08:38:38;;;;;;;0.17;0.10;;;19.60;60.10;;;;;;4987937;28;20293;-15
2022/04/16 08:41:04;;;;;;;0.10;0.10;;;19.60;60.10;;;;;;4957195;28;20039;-15
2022/04/16 08:43:30;;;;;;;0.10;0.10;;;19.60;60.10;;;;;;4986611;28;20412;-15
2022/04/16 08:45:55;;;;;;;0.10;0.10;;;19.60;60.10;;;;;;4968546;28;20040;-15
2022/04/16 08:48:21;;;;;;;0.20;0.20;;;19.60;59.90;;;;;;4968569;28;20042;-15
2022/04/16 08:50:47;;;;;;;0.00;0.00;;;19.70;59.80;;;;;;4970583;28;20047;-14
2022/04/16 08:53:13;;;;;;;0.10;0.10;;;19.70;59.70;;;;;;4972678;28;20090;-15
2022/04/16 08:55:39;;;;;;;0.00;0.00;;;19.70;59.60;;;;;;4958011;28;20054;-15
2022/04/16 08:58:05;;;;;;;0.10;0.10;;;19.80;59.50;;;;;;4956761;28;20039;-15
2022/04/16 09:00:31;;;;;;;0.10;0.10;;;19.90;60.10;;;;;;4960807;28;20418;-15
2022/04/16 09:02:58;;;;;;;0.10;0.10;;;19.90;59.40;;;;;;4962643;28;20058;-15
2022/04/16 09:05:27;;;;;;;0.03;0.03;;;19.80;59.40;;;;;;4975202;28;20066;-15
2022/04/16 09:07:57;;;;;;;0.10;0.10;;;19.90;59.40;;;;;;4975669;28;20563;-15
2022/04/16 09:10:29;;;;;;;0.10;0.10;;;19.90;59.40;;;;;;4975563;28;20051;-15
2022/04/16 09:12:57;;;;;;;0.10;0.10;;;19.90;59.30;;;;;;4972382;28;20074;-17
2022/04/16 09:15:23;;;;;;;0.10;0.10;;;19.90;59.40;;;;;;4968388;28;20590;-15
2022/04/16 09:18:01;;;;;;;0.10;0.10;;;19.90;59.40;;;;;;4971632;28;20049;-16
2022/04/16 09:20:37;;;;;;;0.20;0.20;;;20.00;59.50;;;;;;4967934;28;20047;-15
2022/04/16 09:23:15;;;;;;;0.10;0.10;;;20.00;59.40;;;;;;4962504;28;20047;-15
2022/04/16 09:25:41;;;;;;;0.13;0.10;;;20.00;59.50;;;;;;4958359;28;20075;-15
2022/04/16 09:28:07;;;;;;;0.43;0.13;;;19.90;59.50;;;;;;4960443;28;20040;-15
2022/04/16 09:30:33;;;;;;;0.08;0.08;;;20.00;59.50;;;;;;4963825;28;20047;-15
2022/04/16 09:32:59;;;;;;;0.10;0.10;;;20.00;59.60;;;;;;4987204;28;20051;-15
2022/04/16 09:35:26;;;;;;;1.45;0.10;;;20.00;59.60;;;;;;4959765;28;20043;-14
2022/04/16 09:37:56;;;;;;;0.10;0.10;;;20.00;59.70;;;;;;4959790;28;20452;-15
2022/04/16 09:40:30;;;;;;;0.10;0.10;;;20.00;59.70;;;;;;4959874;28;20043;-14
2022/04/16 09:42:56;;;;;;;;;;;20.00;59.50;;;;;;4963898;28;20053;-15
2022/04/16 09:45:21;;;;;;;0.10;0.10;;;20.10;59.50;;;;;;4969512;28;19919;-15
2022/04/16 09:47:48;;;;;;;0.10;0.10;;;20.10;59.60;;;;;;4976030;28;20103;-15
2022/04/16 09:50:14;;;;;;;0.10;0.10;;;20.10;59.60;;;;;;4978657;28;20101;-15
2022/04/16 09:52:39;;;;;;;0.10;0.10;;;20.10;59.50;;;;;;5009881;28;20043;-15
2022/04/16 09:55:05;;;;;;;0.52;0.25;;;20.10;59.60;;;;;;5006961;28;20057;-15
2022/04/16 09:57:31;;;;;;;0.10;0.10;;;20.10;59.60;;;;;;4974762;28;20043;-15
2022/04/16 09:59:56;;;;;;;0.10;0.10;;;20.10;59.50;;;;;;4990616;28;20066;-15
2022/04/16 10:02:22;;;;;;;0.20;0.20;;;20.10;59.50;;;;;;4974104;28;20221;-15
2022/04/16 10:04:48;;;;;;;0.10;0.10;;;20.20;59.50;;;;;;4977831;28;20439;-15
2022/04/16 10:07:14;;;;;;;2.28;0.10;;;20.20;59.50;;;;;;4973459;28;20050;-16
2022/04/16 10:09:41;;;;;;;0.10;0.10;;;20.20;59.50;;;;;;4977372;28;20046;-15
2022/04/16 10:14:55;;;;;;;0.30;0.10;;;20.20;59.50;;;;;;4970609;28;20186;-15
2022/04/16 10:17:39;;;;;;;0.20;0.10;;;20.20;59.40;;;;;;4969799;28;20055;-14
2022/04/16 10:20:08;;;;;;;0.10;0.10;;;20.30;59.40;;;;;;4968420;28;20047;-15
2022/04/16 10:22:34;;;;;;;0.10;0.10;;;20.30;59.40;;;;;;4968064;28;20055;-15
2022/04/16 10:25:00;;;;;;;0.10;0.10;;;20.30;59.30;;;;;;4974731;28;20058;-15
2022/04/16 10:27:28;;;;;;;0.22;0.22;;;20.30;59.30;;;;;;4974689;28;20043;-15
2022/04/16 10:29:58;;;;;;;0.10;0.10;;;20.30;59.30;;;;;;4960020;28;20071;-15
2022/04/16 10:32:23;;;;;;;0.10;0.10;;;20.30;59.30;;;;;;4960922;28;20042;-15
2022/04/16 10:34:49;;;;;;;0.82;0.22;;;20.30;59.30;;;;;;4975634;28;20087;-15
2022/04/16 10:37:24;;;;;;;0.10;0.10;;;20.30;59.20;;;;;;4973497;28;20113;-15
2022/04/16 10:39:53;;;;;;;0.10;0.10;;;20.40;59.30;;;;;;4978277;28;20526;-16
2022/04/16 10:42:32;;;;;;;0.10;0.10;;;20.40;59.20;;;;;;4973864;28;20113;-16
2022/04/16 10:45:06;;;;;;;0.20;0.20;;;20.40;59.20;;;;;;4967025;28;20043;-16
2022/04/16 10:47:35;;;;;;;0.10;0.10;;;20.40;59.10;;;;;;4976453;28;20046;-15
2022/04/16 10:50:00;;;;;;;0.20;0.13;;;20.50;59.10;;;;;;4975817;28;20525;-17
2022/04/16 10:52:28;;;;;;;0.60;0.20;;;20.40;59.10;;;;;;4622968;28;10000344;-16
2022/04/16 10:55:22;;;;;;;0.20;0.20;;;20.50;59.10;;;;;;4957420;28;20043;-16
2022/04/16 10:58:07;;;;;;;0.10;0.10;;;20.50;59.10;;;;;;4969025;28;20057;-15
2022/04/16 11:00:45;;;;;;;0.35;0.13;;;20.50;59.10;;;;;;4961693;28;20043;-15
2022/04/16 11:03:17;;;;;;;0.10;0.10;;;20.50;59.10;;;;;;4962425;28;20054;-15
2022/04/16 11:05:43;;;;;;;0.20;0.10;;;20.50;59.10;;;;;;4973807;28;20050;-15
2022/04/16 11:08:13;;;;;;;0.10;0.10;;;20.50;59.10;;;;;;4973908;28;20050;-15
2022/04/16 11:10:40;;;;;;;0.10;0.10;;;20.60;59.10;;;;;;4969459;28;20057;-15
2022/04/16 11:13:05;;;;;;;0.10;0.10;;;20.60;59.10;;;;;;4965121;28;20607;-15
2022/04/16 11:15:32;;;;;;;0.20;0.20;;;20.60;59.00;;;;;;4966426;28;20463;-15
2022/04/16 11:17:59;;;;;;;0.45;0.15;;;20.60;59.10;;;;;;4974868;28;20479;-15
2022/04/16 11:20:27;;;;;;;0.10;0.10;;;20.60;59.10;;;;;;4977193;28;20205;-15
2022/04/16 11:22:53;;;;;;;0.28;0.28;;;20.60;59.00;;;;;;4973519;28;20051;-16
2022/04/16 11:25:21;;;;;;;0.32;0.32;;;20.60;59.00;;;;;;4973053;28;20102;-15
2022/04/16 11:36:05;;;;;;;0.40;0.30;;;20.60;58.90;;;;;;4961688;28;20065;-17
2022/04/16 11:38:32;;;;;;;0.30;0.20;;;20.60;58.90;;;;;;4974292;28;20050;-16
2022/04/16 11:41:04;;;;;;;0.30;0.20;;;20.70;58.80;;;;;;4974109;28;20053;-15
2022/04/16 11:43:30;;;;;;;0.68;0.30;;;20.70;58.80;;;;;;4974047;28;20046;-15
2022/04/16 11:45:55;;;;;;;0.30;0.30;;;20.60;58.80;;;;;;4964038;28;20055;-16
2022/04/16 11:48:21;;;;;;;0.20;0.20;;;20.70;58.80;;;;;;4974413;28;20566;-15
2022/04/16 11:50:47;;;;;;;0.30;0.30;;;20.60;58.70;;;;;;4972391;28;20053;-15
2022/04/16 11:53:13;;;;;;;0.50;0.40;;;20.60;58.70;;;;;;4958831;28;20121;-15
2022/04/16 11:55:48;;;;;;;0.40;0.40;;;20.70;58.70;;;;;;4969467;28;20532;-15
2022/04/16 11:58:14;;;;;;;0.30;0.20;;;20.70;58.60;;;;;;4965626;28;20039;-15
2022/04/16 12:00:50;;;;;;;0.30;0.30;;;20.70;58.60;;;;;;4971527;28;20117;-16
2022/04/16 12:03:17;;;;;;;0.30;0.30;;;20.70;58.60;;;;;;4959808;28;20047;-15
2022/04/16 12:05:42;;;;;;;0.60;0.40;;;20.70;58.50;;;;;;4971225;28;20091;-15
2022/04/16 12:08:09;;;;;;;0.60;0.40;;;20.70;58.40;;;;;;4972203;28;20073;-15
2022/04/16 12:10:36;;;;;;;0.52;0.43;;;20.70;58.50;;;;;;4957148;28;20039;-15
2022/04/16 12:13:07;;;;;;;0.60;0.60;;;20.70;58.40;;;;;;4961525;28;20039;-15
2022/04/16 12:15:33;;;;;;;0.40;0.40;;;20.70;58.40;;;;;;4973553;28;20045;-16
2022/04/16 12:18:08;;;;;;;0.40;0.40;;;20.70;58.40;;;;;;4969668;28;20035;-15
2022/04/16 12:20:39;;;;;;;0.40;0.40;;;20.70;58.40;;;;;;4973562;28;20047;-15
2022/04/16 12:23:05;;;;;;;0.40;0.40;;;20.70;58.40;;;;;;4969969;28;20408;-17
2022/04/16 12:25:31;;;;;;;0.43;0.40;;;20.70;58.30;;;;;;4973368;28;20047;-15
2022/04/16 12:27:58;;;;;;;0.75;0.65;;;20.80;58.30;;;;;;4969669;28;20058;-15
2022/04/16 12:30:28;;;;;;;0.80;0.43;;;20.80;58.30;;;;;;4966781;28;20047;-17
2022/04/16 12:32:58;;;;;;;0.75;0.70;;;20.80;58.20;;;;;;4976012;28;20077;-15
2022/04/16 12:35:24;;;;;;;0.40;0.30;;;20.80;58.20;;;;;;4975775;28;20090;-16
2022/04/16 12:37:51;;;;;;;0.43;0.43;;;20.80;58.10;;;;;;4974922;28;20054;-15
2022/04/16 12:40:18;;;;;;;0.40;0.40;;;20.80;58.10;;;;;;4967806;28;20423;-15
2022/04/16 12:42:44;;;;;;;0.43;0.40;;;20.80;58.00;;;;;;4962875;28;20050;-15
2022/04/16 12:45:09;;;;;;;0.70;0.70;;;20.80;58.00;;;;;;4966750;28;20050;-16
2022/04/16 12:47:35;;;;;;;0.52;0.40;;;20.80;58.00;;;;;;4971825;28;20066;-15
2022/04/16 12:50:00;;;;;;;0.40;0.40;;;20.80;58.00;;;;;;4967062;28;20048;-15
2022/04/16 12:52:26;;;;;;;0.40;0.40;;;20.80;57.90;;;;;;4968113;28;20661;-15
2022/04/16 12:54:52;;;;;;;0.70;0.50;;;20.80;57.90;;;;;;4973273;28;20499;-15
2022/04/16 12:57:17;;;;;;;0.50;0.50;;;20.80;57.90;;;;;;4978731;28;20054;-15
2022/04/16 12:59:43;;;;;;;0.70;0.70;;;20.80;57.80;;;;;;4974676;28;20487;-15
2022/04/16 13:02:08;;;;;;;0.73;0.70;;;20.80;57.70;;;;;;4979264;28;20066;-15
2022/04/16 13:04:34;;;;;;;1.08;0.57;;;20.80;57.80;;;;;;4977649;28;20045;-15
2022/04/16 13:07:00;;;;;;;0.57;0.38;;;20.80;57.70;;;;;;4969273;28;20567;-15
2022/04/16 13:09:25;;;;;;;0.73;0.50;;;20.80;57.80;;;;;;4978621;28;20614;-16